Decoded Metar for UKDE (MOKRAYA in UKRAINE) (IATA:OZH) | Meteo·Mobile Aviation Weather
aviador You're here:

UKDE Decoded Metar

MOKRAYA in UKRAINE
Report Time2019-03-23 08:00:00
UTC Time2019-03-23 08:16:31
Flight Rules vfr VFR
Wind320° at 14 kt
W.Decomp.*RWY 02: 6.1 kt HW 12.6 kt LCW
W.Rank320° ranks 14
Current wind is above 320° avg. (7.7)
Visibility9999 m
Phenomena:N/A
Clouds:Scattered CB 029 Hf
Broken 033 Hf
Expected CloudBase > 2,400 ft AGL from Temp-Dew spread
Ceiling3,300 ft
Temp04°C (ISA -10)
Dew Point-2°C (65% RH)
AAT-3.3°C
QNH1015 hPa
Density Alt-866 ft
Elevation371 ft
Report Wrong Elevation
Raw Report
UKDE 230800Z 32007MPS 9999 SCT029CB BKN033 04/M02 Q1015
R02R/221056 TEMPO 34012G17MPS 0800 +SHSNRA VV003=

Extra information for UKDE:More info

Metar Taf Metar & Taf Last 4 Metars F.Rules Stats Wind Profile Meteogram Temp Stats Airport Information Weather charts Add Link Nearby VenuesMetar ALERT Operation Metar Decoded Social comments